Terminal Aerodrome Forecast
Issued by NWS

Home | Current Version | Previous Version | Text Only | Print | Product List | Glossary On
Versions: 1 2 3 4 5 6 7 8 9 10 11 12 13 14
000
FTUS42 TJSJ 211120
TAFKPK
TAF
TKPK 211120Z 2112/2212 05012KT P6SM VCSH SCT018 BKN035 BKN080
      TEMPO 2112/2114 VRB14G20KT 6SM -SHRA BKN018
     FM211400 06014KT P6SM FEW020 SCT050 SCT090
     FM211730 12016KT P6SM VCSH SCT020 SCT040
     FM212200 07012KT P6SM FEW019 SCT040=

USA.gov is the U.S. government's official web portal to all federal, state and local government web resources and services.